Time;durP1;ratioP1;P1;durP2;ratioP2;P2;SDS_P1;SDS_P2;PMS_P1;PMS_P2;Temp;Humidity;BMP_temperature;BMP_pressure;BME280_temperature;BME280_humidity;BME280_pressure;Samples;Min_cycle;Max_cycle;Signal;HPM_P1;HPM_P2
2024/01/28 00:02:22;;;;;;;7.63;4.50;;;;;;;;;;5054070;27;93104;-77
2024/01/28 00:04:49;;;;;;;8.38;4.10;;;;;;;;;;5055310;27;92163;-77
2024/01/28 00:07:15;;;;;;;8.73;4.43;;;;;;;;;;5043507;27;92363;-78
2024/01/28 00:09:42;;;;;;;10.70;5.10;;;;;;;;;;5033290;27;93863;-77
2024/01/28 00:12:10;;;;;;;7.47;4.25;;;;;;;;;;5035352;27;92348;-78
2024/01/28 00:14:37;;;;;;;6.45;4.15;;;;;;;;;;5034695;27;92335;-78
2024/01/28 00:17:04;;;;;;;9.70;4.53;;;;;;;;;;5031731;27;95060;-77
2024/01/28 00:19:34;;;;;;;9.70;4.88;;;;;;;;;;5051658;27;94240;-79
2024/01/28 00:22:01;;;;;;;11.10;4.30;;;;;;;;;;5016488;27;94632;-77
2024/01/28 00:24:27;;;;;;;8.30;5.07;;;;;;;;;;5031513;27;95735;-77
2024/01/28 00:26:55;;;;;;;8.15;4.70;;;;;;;;;;5054516;27;92810;-77
2024/01/28 00:29:28;;;;;;;9.25;4.80;;;;;;;;;;5052050;27;92885;-77
2024/01/28 00:31:56;;;;;;;9.35;4.82;;;;;;;;;;5034674;27;93932;-77
2024/01/28 00:34:23;;;;;;;7.05;4.35;;;;;;;;;;5053093;27;92130;-77
2024/01/28 00:36:49;;;;;;;9.20;4.97;;;;;;;;;;5034902;27;93874;-77
2024/01/28 00:39:16;;;;;;;7.85;5.00;;;;;;;;;;5034016;27;92942;-77
2024/01/28 00:41:43;;;;;;;5.57;3.78;;;;;;;;;;5051070;27;94775;-77
2024/01/28 00:44:09;;;;;;;8.93;4.07;;;;;;;;;;5033998;27;93885;-77
2024/01/28 00:46:36;;;;;;;7.60;5.22;;;;;;;;;;5020882;27;94690;-78
2024/01/28 00:49:03;;;;;;;6.70;4.22;;;;;;;;;;5052644;27;93027;-77
2024/01/28 00:51:31;;;;;;;10.43;4.50;;;;;;;;;;5052484;27;93142;-77
2024/01/28 00:53:58;;;;;;;6.20;4.50;;;;;;;;;;5052426;27;93156;-77
2024/01/28 00:56:24;;;;;;;8.43;4.97;;;;;;;;;;5034711;27;92973;-77
2024/01/28 00:58:51;;;;;;;8.82;4.50;;;;;;;;;;5034551;27;92671;-77
2024/01/28 01:01:19;;;;;;;9.38;4.82;;;;;;;;;;5052718;27;92636;-77
2024/01/28 01:03:46;;;;;;;9.50;4.90;;;;;;;;;;5020596;27;92533;-76
2024/01/28 01:06:12;;;;;;;7.75;4.57;;;;;;;;;;5032478;27;94873;-76
2024/01/28 01:08:39;;;;;;;5.60;4.20;;;;;;;;;;5036482;27;94178;-75
2024/01/28 01:11:06;;;;;;;7.15;5.13;;;;;;;;;;5051787;27;92879;-76
2024/01/28 01:13:33;;;;;;;7.68;4.32;;;;;;;;;;5051796;27;92853;-76
2024/01/28 01:15:59;;;;;;;8.02;4.68;;;;;;;;;;5051703;27;94322;-76
2024/01/28 01:18:26;;;;;;;6.57;4.03;;;;;;;;;;5034883;27;92402;-76
2024/01/28 01:20:53;;;;;;;5.97;3.80;;;;;;;;;;5053194;27;92441;-76
2024/01/28 01:23:19;;;;;;;6.25;3.95;;;;;;;;;;5034743;27;93326;-76
2024/01/28 01:25:46;;;;;;;8.88;4.88;;;;;;;;;;5052180;27;92480;-76
2024/01/28 01:28:12;;;;;;;6.97;4.15;;;;;;;;;;5050761;27;92599;-76
2024/01/28 01:30:39;;;;;;;8.43;4.75;;;;;;;;;;5007061;28;94935;-76
2024/01/28 01:33:06;;;;;;;6.63;4.05;;;;;;;;;;5000610;28;94382;-76
2024/01/28 01:35:33;;;;;;;7.68;4.75;;;;;;;;;;5022609;27;93751;-76
2024/01/28 01:37:59;;;;;;;11.70;4.97;;;;;;;;;;5051453;27;92723;-76
2024/01/28 01:40:26;;;;;;;8.68;4.50;;;;;;;;;;5036308;27;94765;-76
2024/01/28 01:42:53;;;;;;;7.55;3.92;;;;;;;;;;5034610;28;93948;-76
2024/01/28 01:45:19;;;;;;;10.15;4.90;;;;;;;;;;5036384;27;92908;-76
2024/01/28 01:47:46;;;;;;;8.13;4.22;;;;;;;;;;5057255;27;92001;-76
2024/01/28 01:50:12;;;;;;;8.52;4.65;;;;;;;;;;5054412;27;92954;-76
2024/01/28 01:52:41;;;;;;;6.35;4.25;;;;;;;;;;5058938;27;92484;-76
2024/01/28 01:55:08;;;;;;;6.00;4.03;;;;;;;;;;5052836;27;94919;-76
2024/01/28 01:57:39;;;;;;;10.30;3.97;;;;;;;;;;5022405;27;96916;-76
2024/01/28 02:00:06;;;;;;;8.05;4.10;;;;;;;;;;5036946;27;93109;-76
2024/01/28 02:02:33;;;;;;;6.40;4.28;;;;;;;;;;5037797;27;93160;-76
2024/01/28 02:04:59;;;;;;;8.38;3.72;;;;;;;;;;5055205;27;92941;-76
2024/01/28 02:07:26;;;;;;;9.10;4.15;;;;;;;;;;5038055;27;93055;-76
2024/01/28 02:09:53;;;;;;;6.20;4.15;;;;;;;;;;5035786;27;92699;-76
2024/01/28 02:12:19;;;;;;;5.93;4.30;;;;;;;;;;5021476;27;92353;-76
2024/01/28 02:14:46;;;;;;;7.63;3.88;;;;;;;;;;5056711;27;93135;-76
2024/01/28 02:17:13;;;;;;;7.70;4.47;;;;;;;;;;5038049;27;92413;-76
2024/01/28 02:19:39;;;;;;;5.20;4.00;;;;;;;;;;5051810;27;95106;-75
2024/01/28 02:22:06;;;;;;;6.95;3.83;;;;;;;;;;5037665;27;93741;-76
2024/01/28 02:24:32;;;;;;;6.55;3.75;;;;;;;;;;5053954;27;92845;-76
2024/01/28 02:26:59;;;;;;;6.25;3.72;;;;;;;;;;5055737;27;93286;-76
2024/01/28 02:29:25;;;;;;;7.57;3.63;;;;;;;;;;5054418;27;92772;-76
2024/01/28 02:31:52;;;;;;;7.82;3.83;;;;;;;;;;5054444;27;92697;-76
2024/01/28 02:34:18;;;;;;;7.53;4.55;;;;;;;;;;5054989;27;92361;-76
2024/01/28 02:36:45;;;;;;;8.73;3.70;;;;;;;;;;5035081;28;92339;-76
2024/01/28 02:39:12;;;;;;;6.47;3.70;;;;;;;;;;5025417;27;95161;-76
2024/01/28 02:41:38;;;;;;;6.95;3.55;;;;;;;;;;5036266;27;93411;-76
2024/01/28 02:44:05;;;;;;;7.65;4.30;;;;;;;;;;5053862;27;94768;-77
2024/01/28 02:46:31;;;;;;;5.18;3.78;;;;;;;;;;5054880;27;92670;-76
2024/01/28 02:48:58;;;;;;;7.00;3.90;;;;;;;;;;5055134;27;94068;-76
2024/01/28 02:51:24;;;;;;;5.97;3.83;;;;;;;;;;5054550;27;92774;-76
2024/01/28 02:53:51;;;;;;;5.57;3.53;;;;;;;;;;5035955;27;95554;-76
2024/01/28 02:56:17;;;;;;;6.05;3.58;;;;;;;;;;5057778;27;92334;-76
2024/01/28 02:58:43;;;;;;;5.60;3.17;;;;;;;;;;5053632;27;93091;-76
2024/01/28 03:01:10;;;;;;;6.50;3.65;;;;;;;;;;5034417;28;93041;-76
2024/01/28 03:03:37;;;;;;;6.35;3.90;;;;;;;;;;5033896;28;92513;-75
2024/01/28 03:06:04;;;;;;;6.65;3.83;;;;;;;;;;5033949;27;92431;-76
2024/01/28 03:08:31;;;;;;;5.90;3.45;;;;;;;;;;5033272;27;94780;-76
2024/01/28 03:10:58;;;;;;;8.07;3.47;;;;;;;;;;5032151;28;95604;-76
2024/01/28 03:13:25;;;;;;;7.13;3.25;;;;;;;;;;5034129;28;92476;-76
2024/01/28 03:15:52;;;;;;;7.50;3.58;;;;;;;;;;5033522;28;92439;-76
2024/01/28 03:18:19;;;;;;;9.20;3.58;;;;;;;;;;5019006;28;92447;-76
2024/01/28 03:20:46;;;;;;;7.03;3.70;;;;;;;;;;5033666;28;92643;-76
2024/01/28 03:23:14;;;;;;;7.72;3.70;;;;;;;;;;5032829;28;92461;-76
2024/01/28 03:25:40;;;;;;;9.55;4.05;;;;;;;;;;5034271;27;92471;-76
2024/01/28 03:28:07;;;;;;;6.53;3.85;;;;;;;;;;5033767;28;94193;-76
2024/01/28 03:30:33;;;;;;;5.72;3.53;;;;;;;;;;5033756;28;93872;-76
2024/01/28 03:33:00;;;;;;;5.80;3.28;;;;;;;;;;5033053;27;94872;-76
2024/01/28 03:35:27;;;;;;;4.90;3.45;;;;;;;;;;5033648;27;92348;-76
2024/01/28 03:37:54;;;;;;;6.63;3.63;;;;;;;;;;5034470;27;92638;-76
2024/01/28 03:40:20;;;;;;;7.22;3.28;;;;;;;;;;5035961;28;93004;-76
2024/01/28 03:42:47;;;;;;;3.58;3.20;;;;;;;;;;5032953;28;93464;-77
2024/01/28 03:45:13;;;;;;;4.63;3.38;;;;;;;;;;5032003;28;93088;-76
2024/01/28 03:47:40;;;;;;;5.00;3.38;;;;;;;;;;5034118;28;93036;-76
2024/01/28 03:50:10;;;;;;;8.32;3.65;;;;;;;;;;5034014;28;92251;-76
2024/01/28 03:52:37;;;;;;;5.32;2.50;;;;;;;;;;5034096;28;92416;-76
2024/01/28 03:55:04;;;;;;;6.43;3.13;;;;;;;;;;5031753;28;92433;-76
2024/01/28 03:57:30;;;;;;;6.05;3.25;;;;;;;;;;5031243;28;94806;-76
2024/01/28 03:59:57;;;;;;;7.63;3.60;;;;;;;;;;5031165;28;95178;-76
2024/01/28 04:02:23;;;;;;;3.78;2.88;;;;;;;;;;5036338;28;93117;-76
2024/01/28 04:04:50;;;;;;;4.95;3.10;;;;;;;;;;5032492;27;93047;-76
2024/01/28 04:07:17;;;;;;;6.10;3.45;;;;;;;;;;5033943;28;92365;-76
2024/01/28 04:09:43;;;;;;;5.80;3.17;;;;;;;;;;5031781;27;92445;-76
2024/01/28 04:12:10;;;;;;;7.20;3.25;;;;;;;;;;5034067;28;92256;-76
2024/01/28 04:14:36;;;;;;;6.30;3.42;;;;;;;;;;5032831;28;92094;-76
2024/01/28 04:17:03;;;;;;;4.65;2.78;;;;;;;;;;5031022;28;92328;-76
2024/01/28 04:19:30;;;;;;;2.53;2.28;;;;;;;;;;5018183;28;93378;-76
2024/01/28 04:21:56;;;;;;;4.30;2.85;;;;;;;;;;5030486;28;94856;-76
2024/01/28 04:24:23;;;;;;;6.20;3.58;;;;;;;;;;5036286;28;94251;-76
2024/01/28 04:26:49;;;;;;;8.23;2.88;;;;;;;;;;5031717;28;92177;-76
2024/01/28 04:29:16;;;;;;;7.30;3.00;;;;;;;;;;5030540;28;93840;-76
2024/01/28 04:31:43;;;;;;;6.47;3.00;;;;;;;;;;5032443;27;93185;-76
2024/01/28 04:34:10;;;;;;;4.75;2.90;;;;;;;;;;5032413;28;92458;-76
2024/01/28 04:36:37;;;;;;;4.75;3.08;;;;;;;;;;5032641;27;92558;-76
2024/01/28 04:39:03;;;;;;;5.55;3.42;;;;;;;;;;5031426;28;94213;-76
2024/01/28 04:41:30;;;;;;;6.25;3.13;;;;;;;;;;5031418;28;92394;-76
2024/01/28 04:43:57;;;;;;;6.57;2.80;;;;;;;;;;5035283;28;92327;-76
2024/01/28 04:46:23;;;;;;;4.63;2.95;;;;;;;;;;5030792;27;94831;-77
2024/01/28 04:48:50;;;;;;;3.35;2.70;;;;;;;;;;5032028;28;95346;-76
2024/01/28 04:51:17;;;;;;;5.80;3.03;;;;;;;;;;5032718;27;93109;-76
2024/01/28 04:53:43;;;;;;;6.25;2.95;;;;;;;;;;5031946;28;92378;-76
2024/01/28 04:56:11;;;;;;;6.60;3.45;;;;;;;;;;5014324;28;93527;-77
2024/01/28 04:58:38;;;;;;;5.45;3.15;;;;;;;;;;5032870;27;92953;-76
2024/01/28 05:01:04;;;;;;;5.63;3.05;;;;;;;;;;5051980;27;92352;-76
2024/01/28 05:03:31;;;;;;;7.82;3.03;;;;;;;;;;5052935;27;92190;-76
2024/01/28 05:05:59;;;;;;;3.58;2.10;;;;;;;;;;5036615;27;95668;-76
2024/01/28 05:08:25;;;;;;;7.47;3.00;;;;;;;;;;5052503;27;92673;-77
2024/01/28 05:10:52;;;;;;;6.20;2.75;;;;;;;;;;5050581;27;95341;-77
2024/01/28 05:13:19;;;;;;;4.53;2.97;;;;;;;;;;5054959;27;92313;-77
2024/01/28 05:15:46;;;;;;;4.90;3.13;;;;;;;;;;5058751;27;92965;-76
2024/01/28 05:18:12;;;;;;;4.53;3.00;;;;;;;;;;5059038;27;92757;-77
2024/01/28 05:20:39;;;;;;;6.68;3.10;;;;;;;;;;5058849;27;93057;-77
2024/01/28 05:23:06;;;;;;;4.43;3.05;;;;;;;;;;5040785;27;94247;-77
2024/01/28 05:25:32;;;;;;;6.88;3.22;;;;;;;;;;5059194;27;92473;-77
2024/01/28 05:27:59;;;;;;;7.15;3.67;;;;;;;;;;5043891;27;92983;-77
2024/01/28 05:30:26;;;;;;;4.63;2.92;;;;;;;;;;5058515;27;92530;-77
2024/01/28 05:32:53;;;;;;;6.20;2.97;;;;;;;;;;5059640;27;92967;-77
2024/01/28 05:35:19;;;;;;;5.15;2.80;;;;;;;;;;5034673;27;94845;-77
2024/01/28 05:37:46;;;;;;;5.90;2.40;;;;;;;;;;5060048;27;92406;-77
2024/01/28 05:40:12;;;;;;;6.03;2.90;;;;;;;;;;5057635;27;94287;-77
2024/01/28 05:42:39;;;;;;;3.97;2.58;;;;;;;;;;5060020;27;92681;-77
2024/01/28 05:45:06;;;;;;;7.25;3.13;;;;;;;;;;5057812;27;92765;-77
2024/01/28 05:47:32;;;;;;;7.75;3.45;;;;;;;;;;5059578;27;92951;-77
2024/01/28 05:49:59;;;;;;;5.45;2.88;;;;;;;;;;5060581;27;92764;-77
2024/01/28 05:52:26;;;;;;;3.80;3.10;;;;;;;;;;5059954;27;92089;-77
2024/01/28 05:54:52;;;;;;;5.95;2.80;;;;;;;;;;5057747;27;92244;-77
2024/01/28 05:57:19;;;;;;;5.97;2.95;;;;;;;;;;5041171;27;94058;-77
2024/01/28 05:59:46;;;;;;;5.05;2.85;;;;;;;;;;5038221;27;94817;-77
2024/01/28 06:02:12;;;;;;;8.25;3.05;;;;;;;;;;5059599;27;95056;-77
2024/01/28 06:04:40;;;;;;;10.23;3.08;;;;;;;;;;5057976;27;92344;-77
2024/01/28 06:07:06;;;;;;;4.72;2.78;;;;;;;;;;5040710;27;93893;-77
2024/01/28 06:09:33;;;;;;;7.15;2.95;;;;;;;;;;5051076;27;92417;-77
2024/01/28 06:12:00;;;;;;;3.95;2.60;;;;;;;;;;5064223;27;92393;-77
2024/01/28 06:14:27;;;;;;;5.70;2.70;;;;;;;;;;5039178;27;92859;-77
2024/01/28 06:16:54;;;;;;;6.25;3.28;;;;;;;;;;5060705;27;92144;-77
2024/01/28 06:19:20;;;;;;;5.00;3.33;;;;;;;;;;5058669;27;92344;-77
2024/01/28 06:21:47;;;;;;;6.13;2.58;;;;;;;;;;5059420;27;92286;-77
2024/01/28 06:24:14;;;;;;;9.57;3.00;;;;;;;;;;5055438;27;95708;-77
2024/01/28 06:26:41;;;;;;;6.13;2.58;;;;;;;;;;5055408;27;92981;-77
2024/01/28 06:29:08;;;;;;;5.60;2.40;;;;;;;;;;5036286;27;92389;-77
2024/01/28 06:31:34;;;;;;;6.43;2.90;;;;;;;;;;5036744;27;94205;-77
2024/01/28 06:34:00;;;;;;;5.70;3.22;;;;;;;;;;5058432;27;92351;-77
2024/01/28 06:36:27;;;;;;;6.10;2.65;;;;;;;;;;5053361;27;92534;-77
2024/01/28 06:38:54;;;;;;;4.88;2.75;;;;;;;;;;5036087;27;92546;-77
2024/01/28 06:41:21;;;;;;;5.35;3.28;;;;;;;;;;5054804;27;92172;-77
2024/01/28 06:43:47;;;;;;;4.82;2.53;;;;;;;;;;5036816;27;92438;-77
2024/01/28 06:46:16;;;;;;;4.25;2.67;;;;;;;;;;5054964;27;92923;-76
2024/01/28 06:48:42;;;;;;;7.43;3.40;;;;;;;;;;5009948;27;94878;-76
2024/01/28 06:51:09;;;;;;;7.22;2.40;;;;;;;;;;5036728;27;92516;-76
2024/01/28 06:53:36;;;;;;;7.13;3.38;;;;;;;;;;5057708;27;92529;-76
2024/01/28 06:56:03;;;;;;;5.32;2.83;;;;;;;;;;5035318;27;93889;-76
2024/01/28 06:58:29;;;;;;;5.95;2.88;;;;;;;;;;5054437;27;92764;-76
2024/01/28 07:00:56;;;;;;;6.75;2.83;;;;;;;;;;5032294;28;92502;-76
2024/01/28 07:03:24;;;;;;;7.88;2.90;;;;;;;;;;5034590;27;93207;-76
2024/01/28 07:05:51;;;;;;;4.47;2.63;;;;;;;;;;5032881;28;92808;-76
2024/01/28 07:08:17;;;;;;;8.15;2.97;;;;;;;;;;5034421;27;92412;-76
2024/01/28 07:10:44;;;;;;;4.70;2.58;;;;;;;;;;5025471;28;94013;-76
2024/01/28 07:13:10;;;;;;;7.65;2.97;;;;;;;;;;5031670;28;94523;-76
2024/01/28 07:15:37;;;;;;;5.18;3.10;;;;;;;;;;5036212;28;95189;-76
2024/01/28 07:18:07;;;;;;;6.50;2.75;;;;;;;;;;5032555;28;92480;-76
2024/01/28 07:20:33;;;;;;;10.30;3.67;;;;;;;;;;5031858;28;93002;-76
2024/01/28 07:23:00;;;;;;;20.95;3.60;;;;;;;;;;5030269;28;93036;-76
2024/01/28 07:25:26;;;;;;;5.10;3.15;;;;;;;;;;5033086;28;92459;-76
2024/01/28 07:27:53;;;;;;;8.65;2.92;;;;;;;;;;5033206;28;92514;-76
2024/01/28 07:30:20;;;;;;;8.13;2.85;;;;;;;;;;5033531;27;92983;-76
2024/01/28 07:32:47;;;;;;;6.63;2.92;;;;;;;;;;5032831;28;96192;-76
2024/01/28 07:35:15;;;;;;;11.02;3.53;;;;;;;;;;5032703;28;92456;-76
2024/01/28 07:37:42;;;;;;;15.07;5.28;;;;;;;;;;5035706;27;94849;-76
2024/01/28 07:40:10;;;;;;;12.15;5.68;;;;;;;;;;5031579;28;97541;-76
2024/01/28 07:42:37;;;;;;;11.13;5.03;;;;;;;;;;5034643;27;92412;-80
